Time,TemperatureF,DewpointF,PressureIn,WindDirection,WindDirectionDegrees,WindSpeedMPH,WindSpeedGustMPH,Humidity,HourlyPrecipIn,Conditions,Clouds,dailyrainin,SolarRadiationWatts/m^2,SoftwareType,DateUTC
2013-10-02 00:00:00,62.0,43.0,-100.00,NW,315,4.0,-999.0,48,-99.99,,,-99.99,0.000000,,2013-10-02 05:00:00,
2013-10-02 00:43:00,62.0,43.0,-100.00,NW,315,4.0,-999.0,48,-99.99,,,-99.99,0.000000,,2013-10-02 05:43:00,
2013-10-02 00:53:00,62.0,43.0,-100.00,NW,315,4.0,-999.0,48,-99.99,,,-99.99,0.000000,,2013-10-02 05:53:00,
2013-10-02 01:00:00,60.0,44.0,-100.00,NW,315,3.0,-999.0,56,-99.99,,,-99.99,0.000000,,2013-10-02 06:00:00,
2013-10-02 01:42:00,60.0,44.0,-100.00,NW,315,3.0,-999.0,56,-99.99,,,-99.99,0.000000,,2013-10-02 06:42:00,
2013-10-02 01:52:00,60.0,44.0,-100.00,NW,315,3.0,-999.0,56,-99.99,,,-99.99,0.000000,,2013-10-02 06:52:00,
2013-10-02 02:00:00,57.0,43.0,-100.00,NW,315,2.0,-999.0,58,-99.99,,,-99.99,0.000000,,2013-10-02 07:00:00,
2013-10-02 02:42:00,57.0,43.0,-100.00,NW,315,2.0,-999.0,58,-99.99,,,-99.99,0.000000,,2013-10-02 07:42:00,
2013-10-02 02:52:00,57.0,43.0,-100.00,NW,315,2.0,-999.0,58,-99.99,,,-99.99,0.000000,,2013-10-02 07:52:00,
2013-10-02 03:00:00,56.0,43.0,-100.00,WNW,292,1.0,-999.0,61,-99.99,,,-99.99,0.000000,,2013-10-02 08:00:00,
2013-10-02 03:42:00,56.0,43.0,-100.00,WNW,292,1.0,-999.0,61,-99.99,,,-99.99,0.000000,,2013-10-02 08:42:00,
2013-10-02 03:52:00,56.0,43.0,-100.00,WNW,292,1.0,-999.0,61,-99.99,,,-99.99,0.000000,,2013-10-02 08:52:00,
2013-10-02 04:00:00,54.0,43.0,-100.00,WNW,292,1.0,-999.0,66,-99.99,,,-99.99,0.000000,,2013-10-02 09:00:00,
2013-10-02 04:43:00,54.0,43.0,-100.00,WNW,292,1.0,-999.0,66,-99.99,,,-99.99,0.000000,,2013-10-02 09:43:00,
2013-10-02 04:54:00,54.0,43.0,-100.00,WNW,292,1.0,-999.0,66,-99.99,,,-99.99,0.000000,,2013-10-02 09:54:00,
2013-10-02 05:00:00,52.0,44.0,-100.00,WNW,292,1.0,-999.0,73,-99.99,,,-99.99,0.000000,,2013-10-02 10:00:00,
2013-10-02 05:42:00,52.0,44.0,-100.00,WNW,292,1.0,-999.0,73,-99.99,,,-99.99,0.000000,,2013-10-02 10:42:00,
2013-10-02 05:53:00,52.0,44.0,-100.00,WNW,292,1.0,-999.0,73,-99.99,,,-99.99,0.000000,,2013-10-02 10:53:00,
2013-10-02 06:00:00,51.0,44.0,-100.00,WNW,292,1.0,-999.0,78,-99.99,,,-99.99,0.000000,,2013-10-02 11:00:00,
2013-10-02 06:43:00,51.0,44.0,-100.00,WNW,292,1.0,-999.0,78,-99.99,,,-99.99,0.000000,,2013-10-02 11:43:00,
2013-10-02 06:52:00,51.0,44.0,-100.00,WNW,292,1.0,-999.0,78,-99.99,,,-99.99,0.000000,,2013-10-02 11:52:00,
2013-10-02 08:00:00,48.0,44.0,-100.00,SW,225,0.0,-999.0,86,-99.99,,,-99.99,39.439999,,2013-10-02 13:00:00,
2013-10-02 08:42:00,48.0,44.0,-100.00,SW,225,0.0,-999.0,86,-99.99,,,-99.99,39.439999,,2013-10-02 13:42:00,
2013-10-02 08:52:00,48.0,44.0,-100.00,SW,225,0.0,-999.0,86,-99.99,,,-99.99,39.439999,,2013-10-02 13:52:00,
2013-10-02 09:00:00,57.0,48.0,-100.00,West,270,2.0,-999.0,71,-99.99,,,-99.99,261.000000,,2013-10-02 14:00:00,
2013-10-02 09:42:00,57.0,48.0,-100.00,West,270,2.0,-999.0,71,-99.99,,,-99.99,261.000000,,2013-10-02 14:42:00,
2013-10-02 09:52:00,57.0,48.0,-100.00,West,270,2.0,-999.0,71,-99.99,,,-99.99,261.000000,,2013-10-02 14:52:00,
2013-10-02 10:00:00,61.0,46.0,-100.00,West,270,3.0,-999.0,57,-99.99,,,-99.99,424.559998,,2013-10-02 15:00:00,
2013-10-02 10:43:00,61.0,46.0,-100.00,West,270,3.0,-999.0,57,-99.99,,,-99.99,424.559998,,2013-10-02 15:43:00,
2013-10-02 10:54:00,61.0,46.0,-100.00,West,270,3.0,-999.0,57,-99.99,,,-99.99,424.559998,,2013-10-02 15:54:00,
2013-10-02 11:00:00,65.0,44.0,-100.00,WSW,247,2.0,-999.0,46,-99.99,,,-99.99,556.799988,,2013-10-02 16:00:00,
2013-10-02 11:43:00,65.0,44.0,-100.00,WSW,247,2.0,-999.0,46,-99.99,,,-99.99,556.799988,,2013-10-02 16:43:00,
2013-10-02 11:52:00,65.0,44.0,-100.00,WSW,247,2.0,-999.0,46,-99.99,,,-99.99,556.799988,,2013-10-02 16:52:00,
2013-10-02 12:00:00,68.0,40.0,-100.00,WSW,247,2.0,-999.0,34,-99.99,,,-99.99,643.799988,,2013-10-02 17:00:00,
2013-10-02 12:42:00,68.0,40.0,-100.00,WSW,247,2.0,-999.0,34,-99.99,,,-99.99,643.799988,,2013-10-02 17:42:00,
2013-10-02 12:52:00,68.0,40.0,-100.00,WSW,247,2.0,-999.0,34,-99.99,,,-99.99,643.799988,,2013-10-02 17:52:00,
2013-10-02 13:00:00,70.0,41.0,-100.00,West,270,3.0,-999.0,34,-99.99,,,-99.99,673.960022,,2013-10-02 18:00:00,
2013-10-02 13:42:00,70.0,41.0,-100.00,West,270,3.0,-999.0,34,-99.99,,,-99.99,673.960022,,2013-10-02 18:42:00,
2013-10-02 13:52:00,70.0,41.0,-100.00,West,270,3.0,-999.0,34,-99.99,,,-99.99,673.960022,,2013-10-02 18:52:00,
2013-10-02 14:00:00,71.0,33.0,-100.00,West,270,3.0,-999.0,24,-99.99,,,-99.99,650.760010,,2013-10-02 19:00:00,
2013-10-02 14:42:00,71.0,33.0,-100.00,West,270,3.0,-999.0,24,-99.99,,,-99.99,650.760010,,2013-10-02 19:42:00,
2013-10-02 14:52:00,71.0,33.0,-100.00,West,270,3.0,-999.0,24,-99.99,,,-99.99,650.760010,,2013-10-02 19:52:00,
2013-10-02 15:00:00,72.0,31.0,-100.00,WNW,292,2.0,-999.0,22,-99.99,,,-99.99,571.880005,,2013-10-02 20:00:00,
2013-10-02 15:42:00,72.0,31.0,-100.00,WNW,292,2.0,-999.0,22,-99.99,,,-99.99,571.880005,,2013-10-02 20:42:00,
2013-10-02 15:52:00,72.0,31.0,-100.00,WNW,292,2.0,-999.0,22,-99.99,,,-99.99,571.880005,,2013-10-02 20:52:00,
2013-10-02 16:00:00,71.0,34.0,-100.00,SSW,202,4.0,-999.0,25,-99.99,,,-99.99,445.440002,,2013-10-02 21:00:00,
2013-10-02 16:44:00,71.0,34.0,-100.00,SSW,202,4.0,-999.0,25,-99.99,,,-99.99,445.440002,,2013-10-02 21:44:00,
2013-10-02 16:55:00,71.0,34.0,-100.00,SSW,202,4.0,-999.0,25,-99.99,,,-99.99,445.440002,,2013-10-02 21:55:00,
2013-10-02 17:00:00,67.0,37.0,-100.00,South,180,5.0,-999.0,32,-99.99,,,-99.99,299.279999,,2013-10-02 22:00:00,
2013-10-02 17:44:00,67.0,37.0,-100.00,South,180,5.0,-999.0,32,-99.99,,,-99.99,299.279999,,2013-10-02 22:44:00,
2013-10-02 17:54:00,67.0,37.0,-100.00,South,180,5.0,-999.0,32,-99.99,,,-99.99,299.279999,,2013-10-02 22:54:00,
2013-10-02 18:00:00,62.0,45.0,-100.00,South,180,3.0,-999.0,52,-99.99,,,-99.99,74.239998,,2013-10-02 23:00:00,
2013-10-02 18:42:00,62.0,45.0,-100.00,South,180,3.0,-999.0,52,-99.99,,,-99.99,74.239998,,2013-10-02 23:42:00,
2013-10-02 18:52:00,62.0,45.0,-100.00,South,180,3.0,-999.0,52,-99.99,,,-99.99,74.239998,,2013-10-02 23:52:00,
2013-10-02 19:00:00,59.0,49.0,-100.00,South,180,2.0,-999.0,71,-99.99,,,-99.99,10.440000,,2013-10-03 00:00:00,
2013-10-02 19:42:00,59.0,49.0,-100.00,South,180,2.0,-999.0,71,-99.99,,,-99.99,10.440000,,2013-10-03 00:42:00,
2013-10-02 19:52:00,59.0,49.0,-100.00,South,180,2.0,-999.0,71,-99.99,,,-99.99,10.440000,,2013-10-03 00:52:00,
2013-10-02 20:00:00,57.0,51.0,-100.00,SSE,157,2.0,-999.0,81,-99.99,,,-99.99,0.000000,,2013-10-03 01:00:00,
2013-10-02 20:42:00,57.0,51.0,-100.00,SSE,157,2.0,-999.0,81,-99.99,,,-99.99,0.000000,,2013-10-03 01:42:00,
2013-10-02 20:52:00,57.0,51.0,-100.00,SSE,157,2.0,-999.0,81,-99.99,,,-99.99,0.000000,,2013-10-03 01:52:00,
2013-10-02 21:00:00,56.0,52.0,-100.00,SSE,157,2.0,-999.0,86,-99.99,,,-99.99,0.000000,,2013-10-03 02:00:00,
2013-10-02 21:52:00,56.0,52.0,-100.00,SSE,157,2.0,-999.0,86,-99.99,,,-99.99,0.000000,,2013-10-03 02:52:00,
2013-10-02 23:00:00,53.0,51.0,-100.00,ESE,112,0.0,-999.0,92,-99.99,,,-99.99,0.000000,,2013-10-03 04:00:00,
2013-10-02 23:44:00,53.0,51.0,-100.00,ESE,112,0.0,-999.0,92,-99.99,,,-99.99,0.000000,,2013-10-03 04:44:00,
2013-10-02 23:53:00,53.0,51.0,-100.00,ESE,112,0.0,-999.0,92,-99.99,,,-99.99,0.000000,,2013-10-03 04:53:00,